sensor_id;sensor_type;location;lat;lon;timestamp;P1;durP1;ratioP1;P2;durP2;ratioP2
13475;SDS011;6810;63.824;20.288;2023-10-08T00:02:53;0.20;;;0.10;;
13475;SDS011;6810;63.824;20.288;2023-10-08T00:05:41;2.17;;;0.20;;
13475;SDS011;6810;63.824;20.288;2023-10-08T00:08:28;0.10;;;0.10;;
13475;SDS011;6810;63.824;20.288;2023-10-08T00:11:16;0.10;;;0.10;;
13475;SDS011;6810;63.824;20.288;2023-10-08T00:14:04;0.50;;;0.03;;
13475;SDS011;6810;63.824;20.288;2023-10-08T00:16:51;0.10;;;0.10;;
13475;SDS011;6810;63.824;20.288;2023-10-08T00:19:39;0.00;;;0.00;;
13475;SDS011;6810;63.824;20.288;2023-10-08T00:22:26;0.20;;;0.10;;
13475;SDS011;6810;63.824;20.288;2023-10-08T00:25:13;0.23;;;0.10;;
13475;SDS011;6810;63.824;20.288;2023-10-08T00:28:00;0.10;;;0.10;;
13475;SDS011;6810;63.824;20.288;2023-10-08T00:30:47;0.03;;;0.03;;
13475;SDS011;6810;63.824;20.288;2023-10-08T00:33:35;0.37;;;0.20;;
13475;SDS011;6810;63.824;20.288;2023-10-08T00:36:22;0.60;;;0.13;;
13475;SDS011;6810;63.824;20.288;2023-10-08T00:39:10;0.00;;;0.00;;
13475;SDS011;6810;63.824;20.288;2023-10-08T00:42:00;0.10;;;0.10;;
13475;SDS011;6810;63.824;20.288;2023-10-08T00:44:47;0.10;;;0.10;;
13475;SDS011;6810;63.824;20.288;2023-10-08T00:47:34;0.10;;;0.10;;
13475;SDS011;6810;63.824;20.288;2023-10-08T00:50:21;0.17;;;0.17;;
13475;SDS011;6810;63.824;20.288;2023-10-08T00:53:10;0.10;;;0.00;;
13475;SDS011;6810;63.824;20.288;2023-10-08T00:55:57;1.23;;;0.20;;
13475;SDS011;6810;63.824;20.288;2023-10-08T00:58:44;2.00;;;0.10;;
13475;SDS011;6810;63.824;20.288;2023-10-08T01:01:35;0.37;;;0.20;;
13475;SDS011;6810;63.824;20.288;2023-10-08T01:04:22;0.10;;;0.10;;
13475;SDS011;6810;63.824;20.288;2023-10-08T01:07:10;0.63;;;0.17;;
13475;SDS011;6810;63.824;20.288;2023-10-08T01:10:01;0.80;;;0.20;;
13475;SDS011;6810;63.824;20.288;2023-10-08T01:12:48;0.00;;;0.00;;
13475;SDS011;6810;63.824;20.288;2023-10-08T01:15:41;0.10;;;0.10;;
13475;SDS011;6810;63.824;20.288;2023-10-08T01:18:28;0.77;;;0.20;;
13475;SDS011;6810;63.824;20.288;2023-10-08T01:21:15;0.10;;;0.10;;
13475;SDS011;6810;63.824;20.288;2023-10-08T01:24:03;0.20;;;0.10;;
13475;SDS011;6810;63.824;20.288;2023-10-08T01:26:50;0.30;;;0.17;;
13475;SDS011;6810;63.824;20.288;2023-10-08T01:29:38;0.10;;;0.07;;
13475;SDS011;6810;63.824;20.288;2023-10-08T01:32:25;0.00;;;0.00;;
13475;SDS011;6810;63.824;20.288;2023-10-08T01:35:13;0.30;;;0.23;;
13475;SDS011;6810;63.824;20.288;2023-10-08T01:38:09;0.10;;;0.10;;
13475;SDS011;6810;63.824;20.288;2023-10-08T01:40:56;0.70;;;0.03;;
13475;SDS011;6810;63.824;20.288;2023-10-08T01:43:43;0.00;;;0.00;;
13475;SDS011;6810;63.824;20.288;2023-10-08T01:46:31;0.00;;;0.00;;
13475;SDS011;6810;63.824;20.288;2023-10-08T01:49:17;1.13;;;0.10;;
13475;SDS011;6810;63.824;20.288;2023-10-08T01:52:06;0.10;;;0.10;;
13475;SDS011;6810;63.824;20.288;2023-10-08T01:54:56;0.00;;;0.00;;
13475;SDS011;6810;63.824;20.288;2023-10-08T01:57:43;0.10;;;0.10;;
13475;SDS011;6810;63.824;20.288;2023-10-08T02:00:31;0.13;;;0.10;;
13475;SDS011;6810;63.824;20.288;2023-10-08T02:03:18;0.00;;;0.00;;
13475;SDS011;6810;63.824;20.288;2023-10-08T02:06:05;0.47;;;0.10;;
13475;SDS011;6810;63.824;20.288;2023-10-08T02:08:52;0.10;;;0.10;;
13475;SDS011;6810;63.824;20.288;2023-10-08T02:11:47;0.10;;;0.10;;
13475;SDS011;6810;63.824;20.288;2023-10-08T02:14:35;0.27;;;0.10;;
13475;SDS011;6810;63.824;20.288;2023-10-08T02:17:22;0.13;;;0.10;;
13475;SDS011;6810;63.824;20.288;2023-10-08T02:20:09;0.63;;;0.03;;
13475;SDS011;6810;63.824;20.288;2023-10-08T02:23:17;0.00;;;0.00;;
13475;SDS011;6810;63.824;20.288;2023-10-08T02:26:04;0.60;;;0.10;;
13475;SDS011;6810;63.824;20.288;2023-10-08T02:28:51;0.40;;;0.00;;
13475;SDS011;6810;63.824;20.288;2023-10-08T02:31:39;0.20;;;0.00;;
13475;SDS011;6810;63.824;20.288;2023-10-08T02:34:27;0.20;;;0.10;;
13475;SDS011;6810;63.824;20.288;2023-10-08T02:37:14;0.87;;;0.10;;
13475;SDS011;6810;63.824;20.288;2023-10-08T02:40:01;0.20;;;0.17;;
13475;SDS011;6810;63.824;20.288;2023-10-08T02:42:48;0.00;;;0.00;;
13475;SDS011;6810;63.824;20.288;2023-10-08T02:45:35;0.00;;;0.00;;
13475;SDS011;6810;63.824;20.288;2023-10-08T02:48:22;0.93;;;0.10;;
13475;SDS011;6810;63.824;20.288;2023-10-08T02:51:09;0.03;;;0.03;;
13475;SDS011;6810;63.824;20.288;2023-10-08T02:53:56;0.10;;;0.00;;
13475;SDS011;6810;63.824;20.288;2023-10-08T02:56:48;0.10;;;0.10;;
13475;SDS011;6810;63.824;20.288;2023-10-08T02:59:36;0.10;;;0.10;;
13475;SDS011;6810;63.824;20.288;2023-10-08T03:02:27;0.10;;;0.00;;
13475;SDS011;6810;63.824;20.288;2023-10-08T03:05:14;0.00;;;0.00;;
13475;SDS011;6810;63.824;20.288;2023-10-08T03:08:03;0.00;;;0.00;;
13475;SDS011;6810;63.824;20.288;2023-10-08T03:10:51;0.00;;;0.00;;
13475;SDS011;6810;63.824;20.288;2023-10-08T03:13:45;0.00;;;0.00;;
13475;SDS011;6810;63.824;20.288;2023-10-08T03:16:35;0.20;;;0.03;;
13475;SDS011;6810;63.824;20.288;2023-10-08T03:19:22;0.63;;;0.17;;
13475;SDS011;6810;63.824;20.288;2023-10-08T03:22:09;0.10;;;0.10;;
13475;SDS011;6810;63.824;20.288;2023-10-08T03:24:57;0.90;;;0.10;;
13475;SDS011;6810;63.824;20.288;2023-10-08T03:27:44;0.10;;;0.10;;
13475;SDS011;6810;63.824;20.288;2023-10-08T03:30:31;0.30;;;0.10;;
13475;SDS011;6810;63.824;20.288;2023-10-08T03:33:19;0.00;;;0.00;;
13475;SDS011;6810;63.824;20.288;2023-10-08T03:36:09;0.07;;;0.07;;
13475;SDS011;6810;63.824;20.288;2023-10-08T03:39:08;0.30;;;0.13;;
13475;SDS011;6810;63.824;20.288;2023-10-08T03:41:58;0.20;;;0.10;;
13475;SDS011;6810;63.824;20.288;2023-10-08T03:44:45;0.00;;;0.00;;
13475;SDS011;6810;63.824;20.288;2023-10-08T03:47:32;0.00;;;0.00;;
13475;SDS011;6810;63.824;20.288;2023-10-08T03:50:19;0.00;;;0.00;;
13475;SDS011;6810;63.824;20.288;2023-10-08T03:53:09;0.10;;;0.10;;
13475;SDS011;6810;63.824;20.288;2023-10-08T03:55:59;0.00;;;0.00;;
13475;SDS011;6810;63.824;20.288;2023-10-08T03:58:46;0.17;;;0.00;;
13475;SDS011;6810;63.824;20.288;2023-10-08T04:01:33;0.60;;;0.10;;
13475;SDS011;6810;63.824;20.288;2023-10-08T04:04:21;0.17;;;0.10;;
13475;SDS011;6810;63.824;20.288;2023-10-08T04:07:08;0.10;;;0.10;;
13475;SDS011;6810;63.824;20.288;2023-10-08T04:09:54;0.07;;;0.00;;
13475;SDS011;6810;63.824;20.288;2023-10-08T04:12:37;0.10;;;0.00;;
13475;SDS011;6810;63.824;20.288;2023-10-08T04:15:24;0.23;;;0.10;;
13475;SDS011;6810;63.824;20.288;2023-10-08T04:18:11;0.10;;;0.00;;
13475;SDS011;6810;63.824;20.288;2023-10-08T04:20:58;0.00;;;0.00;;
13475;SDS011;6810;63.824;20.288;2023-10-08T04:23:46;0.20;;;0.00;;
13475;SDS011;6810;63.824;20.288;2023-10-08T04:26:33;0.17;;;0.00;;
13475;SDS011;6810;63.824;20.288;2023-10-08T04:29:21;0.27;;;0.00;;
13475;SDS011;6810;63.824;20.288;2023-10-08T04:32:08;0.00;;;0.00;;
13475;SDS011;6810;63.824;20.288;2023-10-08T04:34:55;0.10;;;0.00;;
13475;SDS011;6810;63.824;20.288;2023-10-08T04:37:42;0.07;;;0.00;;
13475;SDS011;6810;63.824;20.288;2023-10-08T04:40:29;0.10;;;0.10;;
13475;SDS011;6810;63.824;20.288;2023-10-08T04:43:17;0.20;;;0.10;;
13475;SDS011;6810;63.824;20.288;2023-10-08T04:46:17;0.00;;;0.00;;
13475;SDS011;6810;63.824;20.288;2023-10-08T04:49:04;0.20;;;0.00;;
13475;SDS011;6810;63.824;20.288;2023-10-08T04:52:01;0.07;;;0.07;;
13475;SDS011;6810;63.824;20.288;2023-10-08T04:54:52;0.00;;;0.00;;
13475;SDS011;6810;63.824;20.288;2023-10-08T04:57:39;0.10;;;0.00;;
13475;SDS011;6810;63.824;20.288;2023-10-08T05:00:26;0.03;;;0.03;;
13475;SDS011;6810;63.824;20.288;2023-10-08T05:03:13;0.00;;;0.00;;
13475;SDS011;6810;63.824;20.288;2023-10-08T05:06:00;0.00;;;0.00;;
13475;SDS011;6810;63.824;20.288;2023-10-08T05:08:33;0.23;;;0.00;;
13475;SDS011;6810;63.824;20.288;2023-10-08T05:11:36;0.10;;;0.00;;
13475;SDS011;6810;63.824;20.288;2023-10-08T05:14:33;0.00;;;0.00;;
13475;SDS011;6810;63.824;20.288;2023-10-08T05:17:07;0.50;;;0.07;;
13475;SDS011;6810;63.824;20.288;2023-10-08T05:19:57;0.10;;;0.10;;
13475;SDS011;6810;63.824;20.288;2023-10-08T05:22:24;0.10;;;0.10;;
13475;SDS011;6810;63.824;20.288;2023-10-08T05:24:55;0.10;;;0.07;;
13475;SDS011;6810;63.824;20.288;2023-10-08T05:27:43;0.10;;;0.10;;
13475;SDS011;6810;63.824;20.288;2023-10-08T05:30:17;0.13;;;0.10;;
13475;SDS011;6810;63.824;20.288;2023-10-08T05:33:04;0.00;;;0.00;;
13475;SDS011;6810;63.824;20.288;2023-10-08T05:35:45;0.10;;;0.10;;
13475;SDS011;6810;63.824;20.288;2023-10-08T05:38:19;0.00;;;0.00;;
13475;SDS011;6810;63.824;20.288;2023-10-08T05:40:58;0.20;;;0.10;;
13475;SDS011;6810;63.824;20.288;2023-10-08T05:43:32;0.00;;;0.00;;
13475;SDS011;6810;63.824;20.288;2023-10-08T05:46:06;0.10;;;0.10;;
13475;SDS011;6810;63.824;20.288;2023-10-08T05:48:53;0.10;;;0.10;;
13475;SDS011;6810;63.824;20.288;2023-10-08T05:51:30;0.10;;;0.10;;
13475;SDS011;6810;63.824;20.288;2023-10-08T05:54:19;0.10;;;0.10;;
13475;SDS011;6810;63.824;20.288;2023-10-08T05:56:56;0.30;;;0.10;;
13475;SDS011;6810;63.824;20.288;2023-10-08T05:59:33;0.00;;;0.00;;
13475;SDS011;6810;63.824;20.288;2023-10-08T06:02:20;0.20;;;0.10;;
13475;SDS011;6810;63.824;20.288;2023-10-08T06:05:01;0.10;;;0.10;;
13475;SDS011;6810;63.824;20.288;2023-10-08T06:07:43;0.00;;;0.00;;
13475;SDS011;6810;63.824;20.288;2023-10-08T06:10:26;0.33;;;0.10;;
13475;SDS011;6810;63.824;20.288;2023-10-08T06:15:53;2.00;;;0.13;;
13475;SDS011;6810;63.824;20.288;2023-10-08T06:18:24;0.20;;;0.10;;
13475;SDS011;6810;63.824;20.288;2023-10-08T06:21:15;0.10;;;0.10;;
13475;SDS011;6810;63.824;20.288;2023-10-08T06:24:02;0.10;;;0.10;;
13475;SDS011;6810;63.824;20.288;2023-10-08T06:26:52;0.13;;;0.10;;
13475;SDS011;6810;63.824;20.288;2023-10-08T06:29:39;0.00;;;0.00;;
13475;SDS011;6810;63.824;20.288;2023-10-08T06:32:26;0.00;;;0.00;;
13475;SDS011;6810;63.824;20.288;2023-10-08T06:35:13;0.10;;;0.10;;
13475;SDS011;6810;63.824;20.288;2023-10-08T06:38:00;0.00;;;0.00;;
13475;SDS011;6810;63.824;20.288;2023-10-08T06:40:48;0.00;;;0.00;;
13475;SDS011;6810;63.824;20.288;2023-10-08T06:43:37;0.43;;;0.20;;
13475;SDS011;6810;63.824;20.288;2023-10-08T06:46:24;0.20;;;0.10;;
13475;SDS011;6810;63.824;20.288;2023-10-08T06:49:11;0.33;;;0.20;;
13475;SDS011;6810;63.824;20.288;2023-10-08T06:51:58;0.30;;;0.10;;
13475;SDS011;6810;63.824;20.288;2023-10-08T06:54:45;0.30;;;0.10;;
13475;SDS011;6810;63.824;20.288;2023-10-08T06:57:32;0.17;;;0.00;;
13475;SDS011;6810;63.824;20.288;2023-10-08T07:00:19;0.30;;;0.20;;
13475;SDS011;6810;63.824;20.288;2023-10-08T07:03:00;0.40;;;0.10;;
13475;SDS011;6810;63.824;20.288;2023-10-08T07:05:28;0.30;;;0.10;;
13475;SDS011;6810;63.824;20.288;2023-10-08T07:07:56;0.00;;;0.00;;
13475;SDS011;6810;63.824;20.288;2023-10-08T07:10:23;0.67;;;0.10;;
13475;SDS011;6810;63.824;20.288;2023-10-08T07:12:50;0.10;;;0.10;;
13475;SDS011;6810;63.824;20.288;2023-10-08T07:15:19;0.10;;;0.10;;
13475;SDS011;6810;63.824;20.288;2023-10-08T07:17:50;0.97;;;0.20;;
13475;SDS011;6810;63.824;20.288;2023-10-08T07:20:18;0.50;;;0.10;;
13475;SDS011;6810;63.824;20.288;2023-10-08T07:22:48;0.10;;;0.10;;
13475;SDS011;6810;63.824;20.288;2023-10-08T07:25:21;0.67;;;0.20;;
13475;SDS011;6810;63.824;20.288;2023-10-08T07:27:48;0.37;;;0.10;;
13475;SDS011;6810;63.824;20.288;2023-10-08T07:30:15;0.20;;;0.20;;
13475;SDS011;6810;63.824;20.288;2023-10-08T07:32:53;0.20;;;0.10;;
13475;SDS011;6810;63.824;20.288;2023-10-08T07:35:25;0.23;;;0.20;;
13475;SDS011;6810;63.824;20.288;2023-10-08T07:37:53;0.00;;;0.00;;
13475;SDS011;6810;63.824;20.288;2023-10-08T07:40:21;0.20;;;0.10;;
13475;SDS011;6810;63.824;20.288;2023-10-08T07:42:54;0.30;;;0.20;;
13475;SDS011;6810;63.824;20.288;2023-10-08T07:45:21;0.00;;;0.00;;
13475;SDS011;6810;63.824;20.288;2023-10-08T07:47:48;0.20;;;0.10;;
13475;SDS011;6810;63.824;20.288;2023-10-08T07:50:15;0.30;;;0.17;;
13475;SDS011;6810;63.824;20.288;2023-10-08T07:52:42;0.23;;;0.13;;
13475;SDS011;6810;63.824;20.288;2023-10-08T07:55:11;0.33;;;0.20;;
13475;SDS011;6810;63.824;20.288;2023-10-08T07:57:44;0.20;;;0.20;;
13475;SDS011;6810;63.824;20.288;2023-10-08T08:00:12;0.10;;;0.10;;
13475;SDS011;6810;63.824;20.288;2023-10-08T08:02:50;0.20;;;0.10;;
13475;SDS011;6810;63.824;20.288;2023-10-08T08:05:19;0.17;;;0.10;;
13475;SDS011;6810;63.824;20.288;2023-10-08T08:07:47;0.20;;;0.10;;
13475;SDS011;6810;63.824;20.288;2023-10-08T08:10:16;0.20;;;0.20;;
13475;SDS011;6810;63.824;20.288;2023-10-08T08:12:45;0.20;;;0.20;;
13475;SDS011;6810;63.824;20.288;2023-10-08T08:15:12;0.03;;;0.03;;
13475;SDS011;6810;63.824;20.288;2023-10-08T08:17:43;0.23;;;0.10;;
13475;SDS011;6810;63.824;20.288;2023-10-08T08:20:11;0.13;;;0.10;;
13475;SDS011;6810;63.824;20.288;2023-10-08T08:22:44;0.17;;;0.10;;
13475;SDS011;6810;63.824;20.288;2023-10-08T08:25:21;0.57;;;0.27;;
13475;SDS011;6810;63.824;20.288;2023-10-08T08:28:01;0.33;;;0.10;;
13475;SDS011;6810;63.824;20.288;2023-10-08T08:30:33;0.27;;;0.10;;
13475;SDS011;6810;63.824;20.288;2023-10-08T08:33:03;0.63;;;0.00;;
13475;SDS011;6810;63.824;20.288;2023-10-08T08:35:37;0.10;;;0.10;;
13475;SDS011;6810;63.824;20.288;2023-10-08T08:38:05;0.10;;;0.10;;
13475;SDS011;6810;63.824;20.288;2023-10-08T08:40:35;0.20;;;0.20;;
13475;SDS011;6810;63.824;20.288;2023-10-08T08:43:02;0.50;;;0.30;;
13475;SDS011;6810;63.824;20.288;2023-10-08T08:45:32;0.17;;;0.10;;
13475;SDS011;6810;63.824;20.288;2023-10-08T08:48:01;0.30;;;0.10;;
13475;SDS011;6810;63.824;20.288;2023-10-08T08:50:29;0.40;;;0.20;;
13475;SDS011;6810;63.824;20.288;2023-10-08T08:52:57;0.10;;;0.10;;
13475;SDS011;6810;63.824;20.288;2023-10-08T08:55:25;0.10;;;0.10;;
13475;SDS011;6810;63.824;20.288;2023-10-08T08:57:54;0.13;;;0.03;;
13475;SDS011;6810;63.824;20.288;2023-10-08T09:00:22;0.30;;;0.20;;
13475;SDS011;6810;63.824;20.288;2023-10-08T09:02:55;0.10;;;0.10;;
13475;SDS011;6810;63.824;20.288;2023-10-08T09:05:22;0.20;;;0.20;;
13475;SDS011;6810;63.824;20.288;2023-10-08T09:10:35;0.10;;;0.10;;
13475;SDS011;6810;63.824;20.288;2023-10-08T09:13:05;0.53;;;0.20;;
13475;SDS011;6810;63.824;20.288;2023-10-08T09:15:34;0.27;;;0.10;;
13475;SDS011;6810;63.824;20.288;2023-10-08T09:18:01;0.13;;;0.13;;
13475;SDS011;6810;63.824;20.288;2023-10-08T09:20:36;0.00;;;0.00;;
13475;SDS011;6810;63.824;20.288;2023-10-08T09:23:11;0.47;;;0.20;;
13475;SDS011;6810;63.824;20.288;2023-10-08T09:25:39;0.17;;;0.10;;
13475;SDS011;6810;63.824;20.288;2023-10-08T09:28:07;0.67;;;0.20;;
13475;SDS011;6810;63.824;20.288;2023-10-08T09:30:35;0.10;;;0.10;;
13475;SDS011;6810;63.824;20.288;2023-10-08T09:33:05;0.10;;;0.10;;
13475;SDS011;6810;63.824;20.288;2023-10-08T09:35:36;0.23;;;0.10;;
13475;SDS011;6810;63.824;20.288;2023-10-08T09:38:05;0.10;;;0.10;;
13475;SDS011;6810;63.824;20.288;2023-10-08T09:40:36;0.00;;;0.00;;
13475;SDS011;6810;63.824;20.288;2023-10-08T09:43:13;0.17;;;0.10;;
13475;SDS011;6810;63.824;20.288;2023-10-08T09:45:43;0.20;;;0.10;;
13475;SDS011;6810;63.824;20.288;2023-10-08T09:48:17;0.10;;;0.10;;
13475;SDS011;6810;63.824;20.288;2023-10-08T09:50:47;0.23;;;0.10;;
13475;SDS011;6810;63.824;20.288;2023-10-08T09:53:14;0.10;;;0.10;;
13475;SDS011;6810;63.824;20.288;2023-10-08T09:55:53;0.20;;;0.10;;
13475;SDS011;6810;63.824;20.288;2023-10-08T09:58:24;0.20;;;0.10;;
13475;SDS011;6810;63.824;20.288;2023-10-08T10:00:55;0.10;;;0.10;;
13475;SDS011;6810;63.824;20.288;2023-10-08T10:03:26;0.10;;;0.10;;
13475;SDS011;6810;63.824;20.288;2023-10-08T10:05:54;0.00;;;0.00;;
13475;SDS011;6810;63.824;20.288;2023-10-08T10:08:25;0.20;;;0.20;;
13475;SDS011;6810;63.824;20.288;2023-10-08T10:10:58;0.10;;;0.10;;
13475;SDS011;6810;63.824;20.288;2023-10-08T10:13:34;0.20;;;0.10;;
13475;SDS011;6810;63.824;20.288;2023-10-08T10:16:09;0.10;;;0.10;;
13475;SDS011;6810;63.824;20.288;2023-10-08T10:18:43;0.47;;;0.10;;
13475;SDS011;6810;63.824;20.288;2023-10-08T10:23:42;0.30;;;0.20;;
13475;SDS011;6810;63.824;20.288;2023-10-08T10:31:38;0.70;;;0.10;;
13475;SDS011;6810;63.824;20.288;2023-10-08T10:34:07;0.27;;;0.20;;
13475;SDS011;6810;63.824;20.288;2023-10-08T10:36:39;0.10;;;0.10;;
13475;SDS011;6810;63.824;20.288;2023-10-08T10:39:09;0.20;;;0.10;;
13475;SDS011;6810;63.824;20.288;2023-10-08T10:41:44;0.10;;;0.10;;
13475;SDS011;6810;63.824;20.288;2023-10-08T10:44:17;0.10;;;0.10;;
13475;SDS011;6810;63.824;20.288;2023-10-08T10:46:45;0.20;;;0.20;;
13475;SDS011;6810;63.824;20.288;2023-10-08T10:49:19;0.00;;;0.00;;
13475;SDS011;6810;63.824;20.288;2023-10-08T10:51:51;0.10;;;0.10;;
13475;SDS011;6810;63.824;20.288;2023-10-08T10:54:31;0.17;;;0.10;;
13475;SDS011;6810;63.824;20.288;2023-10-08T10:57:03;0.13;;;0.13;;
13475;SDS011;6810;63.824;20.288;2023-10-08T10:59:36;0.10;;;0.10;;
13475;SDS011;6810;63.824;20.288;2023-10-08T11:02:06;0.03;;;0.03;;
13475;SDS011;6810;63.824;20.288;2023-10-08T11:04:34;0.60;;;0.10;;
13475;SDS011;6810;63.824;20.288;2023-10-08T11:07:15;0.20;;;0.20;;
13475;SDS011;6810;63.824;20.288;2023-10-08T11:09:46;0.20;;;0.20;;
13475;SDS011;6810;63.824;20.288;2023-10-08T11:12:14;0.10;;;0.10;;
13475;SDS011;6810;63.824;20.288;2023-10-08T11:14:48;0.10;;;0.10;;
13475;SDS011;6810;63.824;20.288;2023-10-08T11:17:25;0.57;;;0.20;;
13475;SDS011;6810;63.824;20.288;2023-10-08T11:19:53;0.20;;;0.20;;
13475;SDS011;6810;63.824;20.288;2023-10-08T11:22:20;0.57;;;0.20;;
13475;SDS011;6810;63.824;20.288;2023-10-08T11:24:49;0.77;;;0.27;;
13475;SDS011;6810;63.824;20.288;2023-10-08T11:27:21;0.27;;;0.27;;
13475;SDS011;6810;63.824;20.288;2023-10-08T11:30:02;0.10;;;0.10;;
13475;SDS011;6810;63.824;20.288;2023-10-08T11:32:38;0.57;;;0.30;;
13475;SDS011;6810;63.824;20.288;2023-10-08T11:35:08;0.60;;;0.30;;
13475;SDS011;6810;63.824;20.288;2023-10-08T11:37:46;0.33;;;0.20;;
13475;SDS011;6810;63.824;20.288;2023-10-08T11:40:22;0.67;;;0.20;;
13475;SDS011;6810;63.824;20.288;2023-10-08T11:42:57;0.70;;;0.30;;
13475;SDS011;6810;63.824;20.288;2023-10-08T11:45:30;0.27;;;0.27;;
13475;SDS011;6810;63.824;20.288;2023-10-08T11:48:05;0.30;;;0.30;;
13475;SDS011;6810;63.824;20.288;2023-10-08T11:50:39;1.00;;;0.20;;
13475;SDS011;6810;63.824;20.288;2023-10-08T11:53:07;0.43;;;0.30;;
13475;SDS011;6810;63.824;20.288;2023-10-08T11:55:35;0.60;;;0.30;;
13475;SDS011;6810;63.824;20.288;2023-10-08T11:58:05;0.20;;;0.20;;
13475;SDS011;6810;63.824;20.288;2023-10-08T12:00:44;0.30;;;0.30;;
13475;SDS011;6810;63.824;20.288;2023-10-08T12:03:13;0.20;;;0.20;;
13475;SDS011;6810;63.824;20.288;2023-10-08T12:05:49;0.40;;;0.30;;
13475;SDS011;6810;63.824;20.288;2023-10-08T12:08:25;0.20;;;0.20;;
13475;SDS011;6810;63.824;20.288;2023-10-08T12:10:56;0.40;;;0.20;;
13475;SDS011;6810;63.824;20.288;2023-10-08T12:13:30;0.20;;;0.20;;
13475;SDS011;6810;63.824;20.288;2023-10-08T12:15:57;0.40;;;0.40;;
13475;SDS011;6810;63.824;20.288;2023-10-08T12:18:33;0.47;;;0.40;;
13475;SDS011;6810;63.824;20.288;2023-10-08T12:21:07;0.23;;;0.20;;
13475;SDS011;6810;63.824;20.288;2023-10-08T12:23:41;0.30;;;0.30;;
13475;SDS011;6810;63.824;20.288;2023-10-08T12:26:16;0.50;;;0.23;;
13475;SDS011;6810;63.824;20.288;2023-10-08T12:28:46;0.33;;;0.30;;
13475;SDS011;6810;63.824;20.288;2023-10-08T12:31:17;0.63;;;0.33;;
13475;SDS011;6810;63.824;20.288;2023-10-08T12:33:49;0.20;;;0.20;;
13475;SDS011;6810;63.824;20.288;2023-10-08T12:36:23;0.20;;;0.20;;
13475;SDS011;6810;63.824;20.288;2023-10-08T12:38:53;0.20;;;0.20;;
13475;SDS011;6810;63.824;20.288;2023-10-08T12:41:26;0.43;;;0.30;;
13475;SDS011;6810;63.824;20.288;2023-10-08T12:43:53;0.40;;;0.27;;
13475;SDS011;6810;63.824;20.288;2023-10-08T12:46:21;0.40;;;0.30;;
13475;SDS011;6810;63.824;20.288;2023-10-08T12:48:52;0.40;;;0.37;;
13475;SDS011;6810;63.824;20.288;2023-10-08T12:51:22;0.63;;;0.30;;
13475;SDS011;6810;63.824;20.288;2023-10-08T12:53:51;0.40;;;0.30;;
13475;SDS011;6810;63.824;20.288;2023-10-08T12:56:33;0.40;;;0.40;;
13475;SDS011;6810;63.824;20.288;2023-10-08T12:59:15;0.20;;;0.20;;
13475;SDS011;6810;63.824;20.288;2023-10-08T13:01:51;0.20;;;0.20;;
13475;SDS011;6810;63.824;20.288;2023-10-08T13:04:22;0.20;;;0.20;;
13475;SDS011;6810;63.824;20.288;2023-10-08T13:06:56;0.50;;;0.30;;
13475;SDS011;6810;63.824;20.288;2023-10-08T13:09:29;0.40;;;0.40;;
13475;SDS011;6810;63.824;20.288;2023-10-08T13:11:58;0.60;;;0.20;;
13475;SDS011;6810;63.824;20.288;2023-10-08T13:14:26;0.20;;;0.20;;
13475;SDS011;6810;63.824;20.288;2023-10-08T13:16:53;0.30;;;0.30;;
13475;SDS011;6810;63.824;20.288;2023-10-08T13:19:20;0.20;;;0.20;;
13475;SDS011;6810;63.824;20.288;2023-10-08T13:21:50;0.10;;;0.10;;
13475;SDS011;6810;63.824;20.288;2023-10-08T13:24:21;0.20;;;0.20;;
13475;SDS011;6810;63.824;20.288;2023-10-08T13:26:50;0.20;;;0.20;;
13475;SDS011;6810;63.824;20.288;2023-10-08T13:29:18;1.37;;;0.30;;
13475;SDS011;6810;63.824;20.288;2023-10-08T13:31:46;0.30;;;0.30;;
13475;SDS011;6810;63.824;20.288;2023-10-08T13:34:13;0.53;;;0.20;;
13475;SDS011;6810;63.824;20.288;2023-10-08T13:36:43;0.20;;;0.10;;
13475;SDS011;6810;63.824;20.288;2023-10-08T13:39:14;0.33;;;0.20;;
13475;SDS011;6810;63.824;20.288;2023-10-08T13:41:48;0.23;;;0.23;;
13475;SDS011;6810;63.824;20.288;2023-10-08T13:44:15;0.10;;;0.10;;
13475;SDS011;6810;63.824;20.288;2023-10-08T13:46:42;0.20;;;0.13;;
13475;SDS011;6810;63.824;20.288;2023-10-08T13:49:16;0.37;;;0.20;;
13475;SDS011;6810;63.824;20.288;2023-10-08T13:51:43;0.10;;;0.10;;
13475;SDS011;6810;63.824;20.288;2023-10-08T13:54:23;0.43;;;0.20;;
13475;SDS011;6810;63.824;20.288;2023-10-08T13:56:56;0.10;;;0.10;;
13475;SDS011;6810;63.824;20.288;2023-10-08T13:59:26;0.20;;;0.20;;
13475;SDS011;6810;63.824;20.288;2023-10-08T14:01:53;0.30;;;0.30;;
13475;SDS011;6810;63.824;20.288;2023-10-08T14:04:22;0.20;;;0.20;;
13475;SDS011;6810;63.824;20.288;2023-10-08T14:06:58;0.10;;;0.10;;
13475;SDS011;6810;63.824;20.288;2023-10-08T14:09:25;0.10;;;0.10;;
13475;SDS011;6810;63.824;20.288;2023-10-08T14:11:59;0.40;;;0.20;;
13475;SDS011;6810;63.824;20.288;2023-10-08T14:14:27;0.27;;;0.27;;
13475;SDS011;6810;63.824;20.288;2023-10-08T14:17:00;0.63;;;0.23;;
13475;SDS011;6810;63.824;20.288;2023-10-08T14:19:37;0.20;;;0.20;;
13475;SDS011;6810;63.824;20.288;2023-10-08T14:22:19;0.40;;;0.20;;
13475;SDS011;6810;63.824;20.288;2023-10-08T14:24:49;0.87;;;0.20;;
13475;SDS011;6810;63.824;20.288;2023-10-08T14:27:26;0.60;;;0.10;;
13475;SDS011;6810;63.824;20.288;2023-10-08T14:30:00;0.60;;;0.20;;
13475;SDS011;6810;63.824;20.288;2023-10-08T14:32:28;0.67;;;0.10;;
13475;SDS011;6810;63.824;20.288;2023-10-08T14:34:59;0.10;;;0.10;;
13475;SDS011;6810;63.824;20.288;2023-10-08T14:37:44;0.13;;;0.10;;
13475;SDS011;6810;63.824;20.288;2023-10-08T14:40:30;0.20;;;0.10;;
13475;SDS011;6810;63.824;20.288;2023-10-08T14:43:15;0.43;;;0.20;;
13475;SDS011;6810;63.824;20.288;2023-10-08T14:45:47;1.13;;;0.20;;
13475;SDS011;6810;63.824;20.288;2023-10-08T14:48:14;0.20;;;0.20;;
13475;SDS011;6810;63.824;20.288;2023-10-08T14:50:41;0.17;;;0.10;;
13475;SDS011;6810;63.824;20.288;2023-10-08T14:53:09;0.20;;;0.17;;
13475;SDS011;6810;63.824;20.288;2023-10-08T14:55:36;0.40;;;0.10;;
13475;SDS011;6810;63.824;20.288;2023-10-08T14:58:04;1.30;;;0.27;;
13475;SDS011;6810;63.824;20.288;2023-10-08T15:00:36;0.20;;;0.20;;
13475;SDS011;6810;63.824;20.288;2023-10-08T15:03:04;0.10;;;0.10;;
13475;SDS011;6810;63.824;20.288;2023-10-08T15:05:32;1.80;;;0.30;;
13475;SDS011;6810;63.824;20.288;2023-10-08T15:07:59;0.23;;;0.20;;
13475;SDS011;6810;63.824;20.288;2023-10-08T15:10:26;0.20;;;0.20;;
13475;SDS011;6810;63.824;20.288;2023-10-08T15:12:53;0.27;;;0.20;;
13475;SDS011;6810;63.824;20.288;2023-10-08T15:15:20;0.20;;;0.20;;
13475;SDS011;6810;63.824;20.288;2023-10-08T15:17:52;0.33;;;0.27;;
13475;SDS011;6810;63.824;20.288;2023-10-08T15:20:19;0.50;;;0.30;;
13475;SDS011;6810;63.824;20.288;2023-10-08T15:22:47;1.13;;;0.30;;
13475;SDS011;6810;63.824;20.288;2023-10-08T15:25:17;0.63;;;0.40;;
13475;SDS011;6810;63.824;20.288;2023-10-08T15:27:45;2.30;;;0.20;;
13475;SDS011;6810;63.824;20.288;2023-10-08T15:30:15;0.90;;;0.20;;
13475;SDS011;6810;63.824;20.288;2023-10-08T15:32:46;0.97;;;0.30;;
13475;SDS011;6810;63.824;20.288;2023-10-08T15:35:16;1.20;;;0.50;;
13475;SDS011;6810;63.824;20.288;2023-10-08T15:37:51;0.53;;;0.30;;
13475;SDS011;6810;63.824;20.288;2023-10-08T15:40:18;1.40;;;0.40;;
13475;SDS011;6810;63.824;20.288;2023-10-08T15:42:48;1.77;;;0.57;;
13475;SDS011;6810;63.824;20.288;2023-10-08T15:45:21;1.87;;;0.50;;
13475;SDS011;6810;63.824;20.288;2023-10-08T15:47:51;1.80;;;0.60;;
13475;SDS011;6810;63.824;20.288;2023-10-08T15:50:19;2.17;;;0.60;;
13475;SDS011;6810;63.824;20.288;2023-10-08T15:52:48;3.83;;;0.70;;
13475;SDS011;6810;63.824;20.288;2023-10-08T15:55:16;3.17;;;0.80;;
13475;SDS011;6810;63.824;20.288;2023-10-08T15:57:44;3.50;;;0.70;;
13475;SDS011;6810;63.824;20.288;2023-10-08T16:00:12;2.77;;;0.70;;
13475;SDS011;6810;63.824;20.288;2023-10-08T16:02:40;3.30;;;0.80;;
13475;SDS011;6810;63.824;20.288;2023-10-08T16:05:09;4.37;;;0.90;;